sensor_id;sensor_type;location;lat;lon;timestamp;temperature;humidity
20418;DHT22;10368;51.436;6.774;2022-08-19T01:42:24;22.00;99.90
20418;DHT22;10368;51.436;6.774;2022-08-19T01:44:56;20.80;99.90
20418;DHT22;10368;51.436;6.774;2022-08-19T01:47:23;20.70;99.90
20418;DHT22;10368;51.436;6.774;2022-08-19T01:49:51;20.60;99.90
20418;DHT22;10368;51.436;6.774;2022-08-19T01:52:17;20.60;99.90
20418;DHT22;10368;51.436;6.774;2022-08-19T01:54:44;20.60;99.90
20418;DHT22;10368;51.436;6.774;2022-08-19T01:57:12;20.60;99.90
20418;DHT22;10368;51.436;6.774;2022-08-19T01:59:41;20.70;99.90
20418;DHT22;10368;51.436;6.774;2022-08-19T02:02:08;20.70;99.90
20418;DHT22;10368;51.436;6.774;2022-08-19T02:04:36;20.70;99.90
20418;DHT22;10368;51.436;6.774;2022-08-19T02:07:07;20.50;99.90
20418;DHT22;10368;51.436;6.774;2022-08-19T02:09:35;20.50;99.90
20418;DHT22;10368;51.436;6.774;2022-08-19T02:12:03;20.40;99.90
20418;DHT22;10368;51.436;6.774;2022-08-19T02:14:30;20.40;99.90
20418;DHT22;10368;51.436;6.774;2022-08-19T02:16:57;20.40;99.90
20418;DHT22;10368;51.436;6.774;2022-08-19T02:19:24;20.40;99.90
20418;DHT22;10368;51.436;6.774;2022-08-19T02:21:51;20.40;99.90
20418;DHT22;10368;51.436;6.774;2022-08-19T02:24:18;20.40;99.90
20418;DHT22;10368;51.436;6.774;2022-08-19T02:26:46;20.30;99.90
20418;DHT22;10368;51.436;6.774;2022-08-19T02:29:13;20.40;99.90
20418;DHT22;10368;51.436;6.774;2022-08-19T02:31:40;20.40;99.90
20418;DHT22;10368;51.436;6.774;2022-08-19T02:34:07;20.50;99.90
20418;DHT22;10368;51.436;6.774;2022-08-19T02:36:34;20.50;99.90
20418;DHT22;10368;51.436;6.774;2022-08-19T02:39:01;20.40;99.90
20418;DHT22;10368;51.436;6.774;2022-08-19T02:41:31;20.40;99.90
20418;DHT22;10368;51.436;6.774;2022-08-19T02:44:00;20.40;99.90
20418;DHT22;10368;51.436;6.774;2022-08-19T02:46:48;20.50;99.90
20418;DHT22;10368;51.436;6.774;2022-08-19T02:49:18;20.50;99.90
20418;DHT22;10368;51.436;6.774;2022-08-19T02:51:49;20.20;99.90
20418;DHT22;10368;51.436;6.774;2022-08-19T02:54:15;20.20;99.90
20418;DHT22;10368;51.436;6.774;2022-08-19T02:56:43;20.40;99.90
20418;DHT22;10368;51.436;6.774;2022-08-19T02:59:11;20.40;99.90
20418;DHT22;10368;51.436;6.774;2022-08-19T03:01:40;20.40;99.90
20418;DHT22;10368;51.436;6.774;2022-08-19T03:04:14;20.30;99.90
20418;DHT22;10368;51.436;6.774;2022-08-19T03:06:45;20.30;99.90
20418;DHT22;10368;51.436;6.774;2022-08-19T03:09:13;20.20;99.90
20418;DHT22;10368;51.436;6.774;2022-08-19T03:11:40;20.20;99.90
20418;DHT22;10368;51.436;6.774;2022-08-19T03:14:08;20.30;99.90
20418;DHT22;10368;51.436;6.774;2022-08-19T03:16:45;20.30;99.90
20418;DHT22;10368;51.436;6.774;2022-08-19T03:19:13;20.30;99.90
20418;DHT22;10368;51.436;6.774;2022-08-19T03:21:43;20.30;99.90
20418;DHT22;10368;51.436;6.774;2022-08-19T03:24:12;20.30;99.90
20418;DHT22;10368;51.436;6.774;2022-08-19T03:26:41;20.20;99.90
20418;DHT22;10368;51.436;6.774;2022-08-19T03:29:08;20.30;99.90
20418;DHT22;10368;51.436;6.774;2022-08-19T03:31:40;20.20;99.90
20418;DHT22;10368;51.436;6.774;2022-08-19T03:34:27;20.20;99.90
20418;DHT22;10368;51.436;6.774;2022-08-19T03:36:55;20.10;99.90
20418;DHT22;10368;51.436;6.774;2022-08-19T03:39:23;20.20;99.90
20418;DHT22;10368;51.436;6.774;2022-08-19T03:41:53;20.00;99.90
20418;DHT22;10368;51.436;6.774;2022-08-19T03:44:42;20.00;99.90
20418;DHT22;10368;51.436;6.774;2022-08-19T03:47:11;20.10;99.90
20418;DHT22;10368;51.436;6.774;2022-08-19T03:49:43;20.00;99.90
20418;DHT22;10368;51.436;6.774;2022-08-19T03:52:10;20.00;99.90
20418;DHT22;10368;51.436;6.774;2022-08-19T03:54:38;20.10;99.90
20418;DHT22;10368;51.436;6.774;2022-08-19T03:57:06;20.10;99.90
20418;DHT22;10368;51.436;6.774;2022-08-19T03:59:35;20.00;99.90
20418;DHT22;10368;51.436;6.774;2022-08-19T04:02:06;19.90;99.90
20418;DHT22;10368;51.436;6.774;2022-08-19T04:04:38;19.90;99.90
20418;DHT22;10368;51.436;6.774;2022-08-19T04:07:06;19.80;99.90
20418;DHT22;10368;51.436;6.774;2022-08-19T04:09:34;19.80;99.90
20418;DHT22;10368;51.436;6.774;2022-08-19T04:12:04;19.90;99.90
20418;DHT22;10368;51.436;6.774;2022-08-19T04:14:32;19.80;99.90
